createdAt,value
2019-02-10T00:02:08.703Z,7.40
2019-02-10T00:04:50.042Z,7.40
2019-02-10T00:07:31.384Z,7.40
2019-02-10T00:10:12.455Z,7.50
2019-02-10T00:12:52.968Z,7.50
2019-02-10T00:15:33.743Z,7.50
2019-02-10T00:18:14.885Z,7.40
2019-02-10T00:20:57.075Z,7.40
2019-02-10T00:23:37.824Z,7.40
2019-02-10T00:26:18.655Z,7.40
2019-02-10T00:29:02.681Z,7.30
2019-02-10T00:31:43.327Z,7.30
2019-02-10T00:34:24.523Z,7.20
2019-02-10T00:37:05.083Z,7.10
2019-02-10T00:39:45.660Z,7.20
2019-02-10T00:42:26.179Z,7.20
2019-02-10T00:45:06.734Z,7.10
2019-02-10T00:47:47.250Z,7.10
2019-02-10T00:50:27.700Z,7.00
2019-02-10T00:53:08.334Z,7.00
2019-02-10T00:55:49.118Z,7.10
2019-02-10T00:58:29.780Z,7.00
2019-02-10T01:01:10.784Z,7.10
2019-02-10T01:03:51.610Z,7.20
2019-02-10T01:06:40.986Z,7.20
2019-02-10T01:09:15.514Z,7.20
2019-02-10T01:11:56.324Z,7.20
2019-02-10T01:14:37.218Z,7.20
2019-02-10T01:17:18.129Z,7.10
2019-02-10T01:19:59.050Z,7.00
2019-02-10T01:22:27.996Z,6.90
2019-02-10T01:25:09.100Z,6.90
2019-02-10T01:27:49.865Z,6.80
2019-02-10T01:30:30.425Z,6.70
2019-02-10T01:33:11.030Z,6.60
2019-02-10T01:35:51.772Z,6.50
2019-02-10T01:38:32.573Z,6.40
2019-02-10T01:41:13.478Z,6.30
2019-02-10T01:43:54.660Z,6.20
2019-02-10T01:46:35.459Z,6.20
2019-02-10T01:49:16.849Z,6.10
2019-02-10T01:51:57.766Z,6.10
2019-02-10T01:54:38.916Z,6.00
2019-02-10T01:57:19.654Z,6.00
2019-02-10T02:00:00.480Z,6.00
2019-02-10T02:02:40.931Z,5.90
2019-02-10T02:05:21.345Z,5.90
2019-02-10T02:08:02.033Z,5.90
2019-02-10T02:10:42.819Z,5.80
2019-02-10T02:13:23.343Z,5.80
2019-02-10T02:16:04.142Z,5.40
2019-02-10T02:18:44.563Z,5.70
2019-02-10T02:21:25.446Z,5.70
2019-02-10T02:24:06.276Z,5.70
2019-02-10T02:26:47.257Z,5.60
2019-02-10T02:29:28.144Z,5.60
2019-02-10T02:32:09.246Z,5.50
2019-02-10T02:34:49.791Z,5.50
2019-02-10T02:37:30.361Z,5.50
2019-02-10T02:40:11.122Z,5.50
2019-02-10T02:42:52.499Z,5.50
2019-02-10T02:45:33.026Z,5.50
2019-02-10T02:48:13.512Z,5.50
2019-02-10T02:50:54.345Z,5.50
2019-02-10T02:53:35.429Z,5.50
2019-02-10T02:56:16.272Z,5.50
2019-02-10T02:58:56.581Z,5.40
2019-02-10T03:01:37.248Z,5.50
2019-02-10T03:04:18.044Z,5.50
2019-02-10T03:06:58.813Z,5.40
2019-02-10T03:09:39.963Z,5.40
2019-02-10T03:12:20.508Z,5.20
2019-02-10T03:15:01.191Z,5.40
2019-02-10T03:17:42.008Z,5.40
2019-02-10T03:20:22.921Z,5.30
2019-02-10T03:23:04.047Z,5.30
2019-02-10T03:25:45.269Z,5.30
2019-02-10T03:28:25.783Z,5.30
2019-02-10T03:31:06.815Z,5.30
2019-02-10T03:33:47.476Z,5.20
2019-02-10T03:36:28.209Z,5.20
2019-02-10T03:39:08.872Z,5.20
2019-02-10T03:41:49.493Z,5.20
2019-02-10T03:44:30.302Z,5.20
2019-02-10T03:47:11.013Z,5.20
2019-02-10T03:49:51.817Z,5.20
2019-02-10T03:52:32.776Z,5.20
2019-02-10T03:55:13.382Z,5.20
2019-02-10T03:57:54.047Z,5.10
2019-02-10T04:00:35.034Z,5.10
2019-02-10T04:03:16.210Z,5.10
2019-02-10T04:05:57.589Z,5.10
2019-02-10T04:08:38.325Z,5.10
2019-02-10T04:11:19.310Z,5.10
2019-02-10T04:14:00.073Z,5.10
2019-02-10T04:16:40.558Z,5.10
2019-02-10T04:19:21.426Z,5.00
2019-02-10T04:22:02.270Z,5.00
2019-02-10T04:24:43.555Z,5.00
2019-02-10T04:27:24.368Z,5.00
2019-02-10T04:30:04.851Z,4.90
2019-02-10T04:32:45.788Z,4.90
2019-02-10T04:35:26.660Z,4.90
2019-02-10T04:38:07.537Z,4.90
2019-02-10T04:40:48.295Z,4.90
2019-02-10T04:43:29.140Z,5.00
2019-02-10T04:46:10.190Z,5.00
2019-02-10T04:48:50.745Z,4.90
2019-02-10T04:51:31.771Z,5.00
2019-02-10T04:54:12.387Z,5.00
2019-02-10T04:56:52.983Z,5.00
2019-02-10T04:59:33.849Z,5.00
2019-02-10T05:02:21.858Z,5.00
2019-02-10T05:05:10.003Z,5.00
2019-02-10T05:07:54.379Z,5.00
2019-02-10T05:10:33.974Z,5.00
2019-02-10T05:13:14.754Z,5.00
2019-02-10T05:15:55.758Z,5.00
2019-02-10T05:18:36.444Z,5.00
2019-02-10T05:21:17.406Z,5.00
2019-02-10T05:24:03.441Z,5.00
2019-02-10T05:26:40.957Z,5.00
2019-02-10T05:29:21.723Z,5.00
2019-02-10T05:32:02.422Z,5.00
2019-02-10T05:34:43.064Z,5.10
2019-02-10T05:37:23.653Z,5.10
2019-02-10T05:40:04.484Z,5.10
2019-02-10T05:42:45.363Z,5.10
2019-02-10T05:45:26.499Z,5.20
2019-02-10T05:48:07.495Z,5.20
2019-02-10T05:50:48.433Z,5.20
2019-02-10T05:53:29.463Z,5.30
2019-02-10T05:56:10.020Z,5.30
2019-02-10T05:58:50.886Z,5.30
2019-02-10T06:01:31.892Z,5.40
2019-02-10T06:04:12.884Z,5.50
2019-02-10T06:06:53.746Z,5.50
2019-02-10T06:09:34.534Z,5.30
2019-02-10T06:12:15.388Z,5.60
2019-02-10T06:14:56.215Z,5.60
2019-02-10T06:17:36.958Z,5.70
2019-02-10T06:20:17.809Z,5.80
2019-02-10T06:22:58.733Z,5.70
2019-02-10T06:25:39.443Z,5.80
2019-02-10T06:28:20.538Z,5.80
2019-02-10T06:31:01.473Z,5.90
2019-02-10T06:33:42.384Z,5.90
2019-02-10T06:36:23.088Z,5.90
2019-02-10T06:39:04.539Z,5.90
2019-02-10T06:41:45.301Z,5.90
2019-02-10T06:44:26.215Z,6.00
2019-02-10T06:47:06.954Z,6.00
2019-02-10T06:49:47.860Z,6.00
2019-02-10T06:52:28.747Z,6.00
2019-02-10T06:55:09.573Z,6.00
2019-02-10T06:57:50.310Z,6.00
2019-02-10T07:03:39.293Z,6.10
2019-02-10T07:06:20.653Z,6.10
2019-02-10T07:09:01.318Z,6.20
2019-02-10T07:11:42.208Z,6.00
2019-02-10T07:14:22.874Z,6.20
2019-02-10T07:17:03.667Z,6.30
2019-02-10T07:19:44.624Z,6.30
2019-02-10T07:22:25.334Z,6.30
2019-02-10T07:25:06.222Z,6.10
2019-02-10T07:27:47.021Z,6.40
2019-02-10T07:30:27.893Z,6.40
2019-02-10T07:33:08.562Z,6.50
2019-02-10T07:35:49.412Z,6.50
2019-02-10T07:38:38.349Z,6.60
2019-02-10T07:41:12.906Z,6.60
2019-02-10T07:43:53.722Z,6.60
2019-02-10T07:46:34.582Z,6.70
2019-02-10T07:49:15.491Z,6.70
2019-02-10T07:51:56.603Z,6.70
2019-02-10T07:54:42.068Z,6.70
2019-02-10T07:57:19.983Z,6.80
2019-02-10T08:00:00.564Z,6.60
2019-02-10T08:02:41.516Z,6.80
2019-02-10T08:05:24.738Z,6.80
2019-02-10T08:08:05.994Z,6.90
2019-02-10T08:10:46.302Z,6.80
2019-02-10T08:13:27.247Z,7.00
2019-02-10T08:16:08.826Z,7.00
2019-02-10T08:18:49.917Z,7.00
2019-02-10T08:21:30.635Z,7.10
2019-02-10T08:24:11.315Z,7.10
2019-02-10T08:26:52.050Z,7.10
2019-02-10T08:29:32.380Z,7.10
2019-02-10T08:32:13.311Z,7.10
2019-02-10T08:34:53.666Z,7.10
2019-02-10T08:37:34.406Z,7.10
2019-02-10T08:40:14.987Z,7.20
2019-02-10T08:42:55.400Z,7.00
2019-02-10T08:45:36.133Z,7.10
2019-02-10T08:48:16.760Z,7.10
2019-02-10T08:50:57.478Z,7.10
2019-02-10T08:53:38.145Z,7.10
2019-02-10T08:56:18.878Z,7.10
2019-02-10T08:58:59.716Z,7.10
2019-02-10T09:04:33.963Z,7.00
2019-02-10T09:07:15.466Z,7.00
2019-02-10T09:09:56.642Z,7.00
2019-02-10T09:12:37.049Z,6.90
2019-02-10T09:15:17.415Z,6.90
2019-02-10T09:17:58.223Z,6.80
2019-02-10T09:20:39.140Z,6.80
2019-02-10T09:23:19.562Z,6.70
2019-02-10T09:26:00.643Z,6.60
2019-02-10T09:28:41.804Z,6.60
2019-02-10T09:31:22.426Z,6.50
2019-02-10T09:34:03.503Z,6.50
2019-02-10T09:36:44.748Z,6.50
2019-02-10T09:39:25.716Z,6.40
2019-02-10T09:42:06.619Z,6.40
2019-02-10T09:44:47.062Z,6.40
2019-02-10T09:47:27.972Z,6.30
2019-02-10T09:50:08.996Z,6.30
2019-02-10T09:52:49.781Z,6.30
2019-02-10T09:55:30.407Z,6.20
2019-02-10T09:58:11.121Z,6.20
2019-02-10T10:00:51.687Z,6.20
2019-02-10T10:03:32.356Z,6.10
2019-02-10T10:06:13.372Z,6.20
2019-02-10T10:08:54.184Z,6.20
2019-02-10T10:11:34.637Z,6.10
2019-02-10T10:14:15.516Z,6.10
2019-02-10T10:16:56.296Z,6.10
2019-02-10T10:19:36.932Z,6.10
2019-02-10T10:22:17.789Z,6.20
2019-02-10T10:25:00.695Z,6.10
2019-02-10T10:27:45.220Z,6.10
2019-02-10T10:30:25.872Z,6.20
2019-02-10T10:33:09.995Z,6.10
2019-02-10T10:35:40.739Z,6.20
2019-02-10T10:38:28.765Z,6.30
2019-02-10T10:41:09.793Z,6.30
2019-02-10T10:43:50.818Z,6.30
2019-02-10T10:46:31.895Z,6.20
2019-02-10T10:49:13.148Z,6.30
2019-02-10T10:51:44.277Z,6.30
2019-02-10T10:54:13.318Z,6.30
2019-02-10T10:56:42.498Z,6.30
2019-02-10T10:59:11.294Z,6.30
2019-02-10T11:01:47.033Z,6.30
2019-02-10T11:04:22.073Z,6.30
2019-02-10T11:06:53.967Z,6.30
2019-02-10T11:09:22.871Z,6.30
2019-02-10T11:11:52.877Z,6.30
2019-02-10T11:14:21.689Z,6.40
2019-02-10T11:16:50.557Z,6.30
2019-02-10T11:19:19.468Z,6.40
2019-02-10T11:21:48.336Z,6.40
2019-02-10T11:24:17.304Z,6.40
2019-02-10T11:26:46.123Z,6.50
2019-02-10T11:29:15.035Z,6.50
2019-02-10T11:31:43.868Z,6.60
2019-02-10T11:34:12.879Z,6.60
2019-02-10T11:36:41.754Z,6.70
2019-02-10T11:39:10.750Z,6.70
2019-02-10T11:41:39.684Z,6.70
2019-02-10T11:44:08.529Z,6.70
2019-02-10T11:46:37.307Z,6.70
2019-02-10T11:49:06.291Z,6.80
2019-02-10T11:51:35.178Z,6.80
2019-02-10T11:54:05.440Z,6.90
2019-02-10T11:56:34.214Z,6.90
2019-02-10T11:59:03.658Z,7.00
2019-02-10T12:01:32.620Z,7.00
2019-02-10T12:04:01.560Z,7.10
2019-02-10T12:06:30.382Z,7.10
2019-02-10T12:08:59.183Z,7.20
2019-02-10T12:11:28.095Z,7.20
2019-02-10T12:13:59.070Z,7.30
2019-02-10T12:16:28.141Z,7.30
2019-02-10T12:18:57.175Z,7.30
2019-02-10T12:21:26.093Z,7.30
2019-02-10T12:23:55.018Z,7.30
2019-02-10T12:26:23.892Z,7.40
2019-02-10T12:28:52.822Z,7.40
2019-02-10T12:31:21.761Z,7.40
2019-02-10T12:33:55.114Z,7.40
2019-02-10T12:36:23.441Z,7.50
2019-02-10T12:38:54.104Z,7.50
2019-02-10T12:41:23.115Z,7.50
2019-02-10T12:43:52.060Z,7.50
2019-02-10T12:46:21.301Z,7.50
2019-02-10T12:48:50.246Z,7.60
2019-02-10T12:51:22.527Z,7.60
2019-02-10T12:53:53.344Z,7.60
2019-02-10T12:56:22.226Z,7.60
2019-02-10T12:58:51.544Z,7.70
2019-02-10T13:01:20.653Z,7.70
2019-02-10T13:03:49.748Z,7.70
2019-02-10T13:06:18.789Z,7.80
2019-02-10T13:08:47.668Z,7.70
2019-02-10T13:11:16.592Z,7.80
2019-02-10T13:13:46.825Z,7.70
2019-02-10T13:16:15.837Z,7.70
2019-02-10T13:18:44.653Z,7.70
2019-02-10T13:21:13.578Z,7.70
2019-02-10T13:23:42.701Z,7.80
2019-02-10T13:26:11.534Z,7.80
2019-02-10T13:28:40.466Z,7.80
2019-02-10T13:31:09.307Z,7.80
2019-02-10T13:33:38.174Z,7.80
2019-02-10T13:36:07.567Z,7.90
2019-02-10T13:38:36.426Z,7.90
2019-02-10T13:41:05.478Z,7.90
2019-02-10T13:43:34.385Z,8.00
2019-02-10T13:46:03.472Z,8.00
2019-02-10T13:48:32.559Z,8.00
2019-02-10T13:51:01.699Z,8.00
2019-02-10T13:53:30.684Z,8.10
2019-02-10T13:55:59.884Z,8.00
2019-02-10T13:58:28.817Z,8.10
2019-02-10T14:00:57.985Z,8.00
2019-02-10T14:03:26.784Z,8.00
2019-02-10T14:05:56.108Z,8.00
2019-02-10T14:08:25.033Z,7.90
2019-02-10T14:10:53.910Z,7.90
2019-02-10T14:13:22.771Z,7.90
2019-02-10T14:15:51.946Z,7.90
2019-02-10T14:18:20.775Z,8.00
2019-02-10T14:20:49.646Z,8.00
2019-02-10T14:23:19.136Z,7.90
2019-02-10T14:25:48.123Z,8.00
2019-02-10T14:28:17.277Z,7.90
2019-02-10T14:30:46.271Z,8.00
2019-02-10T14:33:15.739Z,7.90
2019-02-10T14:35:44.718Z,8.00
2019-02-10T14:38:13.852Z,8.00
2019-02-10T14:40:42.832Z,8.00
2019-02-10T14:43:12.085Z,8.00
2019-02-10T14:45:42.179Z,7.90
2019-02-10T14:48:16.014Z,8.00
2019-02-10T14:50:45.023Z,7.90
2019-02-10T14:53:14.025Z,7.90
2019-02-10T14:55:46.162Z,7.90
2019-02-10T14:58:17.328Z,7.90
2019-02-10T15:00:46.534Z,7.90
2019-02-10T15:03:16.245Z,7.90
2019-02-10T15:05:45.131Z,7.90
2019-02-10T15:08:15.323Z,7.80
2019-02-10T15:10:44.536Z,7.80
2019-02-10T15:13:13.841Z,7.80
2019-02-10T15:15:51.410Z,7.80
2019-02-10T15:18:20.512Z,7.80
2019-02-10T15:20:49.574Z,7.80
2019-02-10T15:23:19.366Z,7.70
2019-02-10T15:25:48.359Z,7.80
2019-02-10T15:28:17.557Z,7.70
2019-02-10T15:30:46.714Z,7.70
2019-02-10T15:33:15.920Z,7.70
2019-02-10T15:35:44.831Z,7.70
2019-02-10T15:38:13.855Z,7.70
2019-02-10T15:40:49.876Z,7.70
2019-02-10T15:43:13.718Z,7.70
2019-02-10T15:45:42.780Z,7.70
2019-02-10T15:48:11.800Z,7.80
2019-02-10T15:50:40.790Z,7.70
2019-02-10T15:53:09.969Z,7.80
2019-02-10T15:55:39.050Z,7.80
2019-02-10T15:58:08.117Z,7.80
2019-02-10T16:00:37.214Z,7.80
2019-02-10T16:03:06.380Z,7.80
2019-02-10T16:05:35.399Z,7.80
2019-02-10T16:08:04.894Z,7.80
2019-02-10T16:10:34.213Z,7.80
2019-02-10T16:13:03.823Z,7.90
2019-02-10T16:15:32.825Z,7.90
2019-02-10T16:18:01.957Z,7.90
2019-02-10T16:20:33.132Z,7.90
2019-02-10T16:23:03.986Z,7.90
2019-02-10T16:25:33.422Z,7.90
2019-02-10T16:28:02.683Z,7.90
2019-02-10T16:30:31.846Z,7.90
2019-02-10T16:33:03.569Z,7.90
2019-02-10T16:35:35.720Z,7.90
2019-02-10T16:38:04.890Z,7.90
2019-02-10T16:40:34.049Z,7.90
2019-02-10T16:43:03.313Z,7.90
2019-02-10T16:45:32.256Z,8.00
2019-02-10T16:48:16.937Z,8.00
2019-02-10T16:50:46.453Z,8.00
2019-02-10T16:53:15.689Z,8.10
2019-02-10T16:55:44.947Z,8.10
2019-02-10T16:58:14.050Z,8.10
2019-02-10T17:00:59.664Z,8.10
2019-02-10T17:03:28.592Z,8.10
2019-02-10T17:05:57.861Z,8.10
2019-02-10T17:08:26.768Z,8.20
2019-02-10T17:10:55.684Z,8.20
2019-02-10T17:13:24.810Z,8.30
2019-02-10T17:15:54.131Z,8.30
2019-02-10T17:18:23.239Z,8.30
2019-02-10T17:20:52.276Z,8.30
2019-02-10T17:23:21.177Z,8.30
2019-02-10T17:25:50.342Z,8.40
2019-02-10T17:28:19.210Z,8.40
2019-02-10T17:30:48.119Z,8.50
2019-02-10T17:33:16.948Z,8.50
2019-02-10T17:35:45.895Z,8.50
2019-02-10T17:38:14.737Z,8.50
2019-02-10T17:40:48.166Z,8.50
2019-02-10T17:43:17.059Z,8.60
2019-02-10T17:45:47.035Z,8.60
2019-02-10T17:48:16.036Z,8.70
2019-02-10T17:50:45.726Z,8.70
2019-02-10T17:53:14.570Z,8.70
2019-02-10T17:55:43.397Z,8.70
2019-02-10T17:58:12.257Z,8.70
2019-02-10T18:00:46.087Z,8.70
2019-02-10T18:03:15.062Z,8.70
2019-02-10T18:05:44.097Z,8.80
2019-02-10T18:08:13.005Z,8.80
2019-02-10T18:10:41.979Z,8.80
2019-02-10T18:13:11.606Z,8.80
2019-02-10T18:15:58.478Z,8.90
2019-02-10T18:18:32.160Z,8.90
2019-02-10T18:21:18.701Z,8.90
2019-02-10T18:24:25.377Z,8.90
2019-02-10T18:27:16.284Z,8.90
2019-02-10T18:30:22.005Z,9.00
2019-02-10T18:33:10.114Z,9.00
2019-02-10T18:35:56.816Z,9.00
2019-02-10T18:38:42.698Z,9.00
2019-02-10T18:41:29.429Z,9.10
2019-02-10T18:44:26.790Z,9.10
2019-02-10T18:47:00.679Z,9.10
2019-02-10T18:49:42.950Z,9.10
2019-02-10T18:52:26.417Z,9.10
2019-02-10T18:55:03.680Z,9.10
2019-02-10T18:57:48.161Z,9.10
2019-02-10T19:00:33.087Z,9.00
2019-02-10T19:03:25.598Z,9.00
2019-02-10T19:06:31.771Z,8.90
2019-02-10T19:09:20.282Z,8.90
2019-02-10T19:12:05.229Z,8.90
2019-02-10T19:15:06.397Z,8.80
2019-02-10T19:17:53.525Z,8.80
2019-02-10T19:20:40.126Z,8.80
2019-02-10T19:23:24.391Z,8.90
2019-02-10T19:26:15.428Z,8.90
2019-02-10T19:29:02.300Z,8.80
2019-02-10T19:31:43.406Z,8.90
2019-02-10T19:34:18.165Z,8.90
2019-02-10T19:37:00.191Z,8.90
2019-02-10T19:39:48.406Z,8.90
2019-02-10T19:42:23.524Z,8.90
2019-02-10T19:45:12.479Z,8.90
2019-02-10T19:47:52.939Z,8.90
2019-02-10T19:50:33.633Z,8.90
2019-02-10T19:53:10.476Z,8.90
2019-02-10T19:56:00.168Z,8.80
2019-02-10T19:59:00.228Z,8.70
2019-02-10T20:01:56.686Z,8.70
2019-02-10T20:04:50.832Z,8.60
2019-02-10T20:07:38.817Z,8.60
2019-02-10T20:10:27.284Z,8.50
2019-02-10T20:13:15.929Z,8.50
2019-02-10T20:16:04.507Z,8.50
2019-02-10T20:18:48.686Z,8.50
2019-02-10T20:21:33.154Z,8.60
2019-02-10T20:24:19.761Z,8.60
2019-02-10T20:27:10.954Z,8.70
2019-02-10T20:29:59.610Z,8.70
2019-02-10T20:32:48.869Z,8.60
2019-02-10T20:35:46.357Z,8.60
2019-02-10T20:38:40.712Z,8.60
2019-02-10T20:41:24.687Z,8.60
2019-02-10T20:44:11.334Z,8.70
2019-02-10T20:46:48.579Z,8.70
2019-02-10T20:49:49.111Z,8.70
2019-02-10T20:52:46.147Z,8.70
2019-02-10T20:55:17.138Z,8.70
2019-02-10T20:58:03.963Z,8.70
2019-02-10T21:00:55.137Z,8.70
2019-02-10T21:03:49.445Z,8.80
2019-02-10T21:06:41.432Z,8.80
2019-02-10T21:09:16.225Z,8.80
2019-02-10T21:12:04.600Z,8.80
2019-02-10T21:14:40.662Z,8.80
2019-02-10T21:17:33.448Z,8.80
2019-02-10T21:20:17.396Z,8.80
2019-02-10T21:23:04.495Z,8.80
2019-02-10T21:26:01.506Z,8.70
2019-02-10T21:28:48.253Z,8.70
2019-02-10T21:31:26.298Z,8.70
2019-02-10T21:34:06.751Z,8.80
2019-02-10T21:36:53.294Z,8.80
2019-02-10T21:39:40.895Z,8.80
2019-02-10T21:42:29.049Z,8.70
2019-02-10T21:45:15.346Z,8.70
2019-02-10T21:47:48.071Z,8.70
2019-02-10T21:50:17.070Z,8.70
2019-02-10T21:52:46.153Z,8.70
2019-02-10T21:55:16.576Z,8.70
2019-02-10T21:57:45.634Z,8.60
2019-02-10T22:00:15.003Z,8.50
2019-02-10T22:02:44.020Z,8.40
2019-02-10T22:05:13.059Z,8.40
2019-02-10T22:07:41.926Z,8.40
2019-02-10T22:10:13.486Z,8.30
2019-02-10T22:12:42.653Z,8.20
2019-02-10T22:15:12.095Z,8.20
2019-02-10T22:17:40.998Z,8.10
2019-02-10T22:20:11.793Z,8.10
2019-02-10T22:22:43.697Z,8.10
2019-02-10T22:25:12.847Z,8.10
2019-02-10T22:27:41.702Z,8.00
2019-02-10T22:30:13.396Z,8.00
2019-02-10T22:32:42.259Z,8.00
2019-02-10T22:35:12.017Z,8.00
2019-02-10T22:37:41.929Z,8.00
2019-02-10T22:40:10.968Z,7.90
2019-02-10T22:42:45.404Z,7.90
2019-02-10T22:45:11.406Z,8.00
2019-02-10T22:47:40.493Z,8.00
2019-02-10T22:50:11.296Z,8.00
2019-02-10T22:52:40.279Z,7.90
2019-02-10T22:55:09.255Z,8.00
2019-02-10T22:57:38.256Z,8.00
2019-02-10T23:00:42.565Z,8.00
2019-02-10T23:03:11.487Z,7.90
2019-02-10T23:05:40.336Z,7.90
2019-02-10T23:08:09.360Z,7.90
2019-02-10T23:10:38.272Z,7.90
2019-02-10T23:13:07.144Z,7.80
2019-02-10T23:15:36.071Z,7.80
2019-02-10T23:18:05.027Z,7.70
2019-02-10T23:20:33.892Z,7.70
2019-02-10T23:23:02.719Z,7.70
2019-02-10T23:25:31.594Z,7.70
2019-02-10T23:28:00.617Z,7.70
2019-02-10T23:30:29.529Z,7.70
2019-02-10T23:32:58.383Z,7.80
2019-02-10T23:35:27.323Z,7.80
2019-02-10T23:37:56.241Z,7.80
2019-02-10T23:40:25.289Z,7.80
2019-02-10T23:43:01.725Z,7.90
2019-02-10T23:45:25.060Z,7.80
2019-02-10T23:47:53.939Z,7.80
2019-02-10T23:50:23.277Z,7.80
2019-02-10T23:52:52.134Z,7.80
2019-02-10T23:55:21.024Z,7.80
2019-02-10T23:57:50.015Z,7.80
